Time;durP1;ratioP1;P1;durP2;ratioP2;P2;SDS_P1;SDS_P2;PMS_P1;PMS_P2;Temp;Humidity;BMP_temperature;BMP_pressure;BME280_temperature;BME280_humidity;BME280_pressure;Samples;Min_cycle;Max_cycle;Signal;HPM_P1;HPM_P2
2021/06/14 06:59:59;;;;;;;16.05;6.18;;;21.10;75.40;;;;;;4989772;28;20064;-72
2021/06/14 07:02:25;;;;;;;11.48;5.05;;;21.10;75.90;;;;;;5005910;28;20396;-71
2021/06/14 07:04:51;;;;;;;13.30;4.80;;;21.20;75.50;;;;;;4990447;28;20030;-73
2021/06/14 07:07:16;;;;;;;12.90;4.78;;;21.20;74.70;;;;;;4991597;28;20032;-73
2021/06/14 07:09:42;;;;;;;14.18;5.18;;;21.30;74.50;;;;;;4991839;28;20171;-73
2021/06/14 07:12:09;;;;;;;10.07;4.57;;;21.30;74.10;;;;;;5007196;28;20022;-68
2021/06/14 07:14:35;;;;;;;11.60;4.90;;;21.40;74.20;;;;;;4991007;28;20065;-72
2021/06/14 07:17:01;;;;;;;11.57;4.38;;;21.40;74.20;;;;;;4992146;28;20489;-72
2021/06/14 07:19:27;;;;;;;14.73;4.18;;;21.50;74.30;;;;;;4991336;28;20113;-73
2021/06/14 07:21:54;;;;;;;8.23;4.07;;;21.50;74.10;;;;;;4990934;28;20553;-74
2021/06/14 07:24:19;;;;;;;9.90;4.40;;;21.50;74.10;;;;;;4991760;28;20034;-72
2021/06/14 07:26:45;;;;;;;10.98;3.75;;;21.50;73.90;;;;;;4991759;28;20033;-72
2021/06/14 07:29:11;;;;;;;12.95;4.53;;;21.60;73.80;;;;;;4991684;28;20041;-72
2021/06/14 07:31:36;;;;;;;10.75;4.63;;;21.60;73.60;;;;;;4990671;28;20029;-74
2021/06/14 07:34:02;;;;;;;8.85;3.75;;;21.50;73.50;;;;;;4990476;28;20047;-75
2021/06/14 07:36:29;;;;;;;9.90;4.05;;;21.60;73.50;;;;;;4992119;28;20065;-74
2021/06/14 07:38:55;;;;;;;9.85;3.45;;;21.60;73.50;;;;;;4991438;28;20113;-74
2021/06/14 07:41:21;;;;;;;10.50;3.83;;;21.60;73.30;;;;;;4991843;28;20018;-72
2021/06/14 07:43:47;;;;;;;7.20;4.00;;;21.60;73.30;;;;;;4987411;28;20401;-74
2021/06/14 07:46:13;;;;;;;5.82;3.53;;;21.60;73.20;;;;;;4983314;28;20097;-74
2021/06/14 07:48:38;;;;;;;9.30;4.03;;;21.70;73.20;;;;;;4991953;28;20530;-73
2021/06/14 07:51:05;;;;;;;9.88;4.55;;;21.70;73.10;;;;;;5011192;28;20107;-72
2021/06/14 07:53:31;;;;;;;9.68;3.85;;;21.70;73.10;;;;;;5011196;28;20034;-71
2021/06/14 07:55:57;;;;;;;13.00;3.63;;;21.70;73.00;;;;;;5011104;28;20026;-72
2021/06/14 07:58:23;;;;;;;7.07;4.13;;;21.70;72.90;;;;;;5011180;28;20026;-72
2021/06/14 08:00:50;;;;;;;7.25;3.88;;;21.70;72.70;;;;;;5010648;28;20041;-74
2021/06/14 08:03:16;;;;;;;9.02;3.30;;;21.70;72.70;;;;;;5004459;28;20030;-73
2021/06/14 08:05:43;;;;;;;8.40;4.10;;;21.70;72.70;;;;;;4995032;28;20426;-74
2021/06/14 08:08:09;;;;;;;6.93;3.60;;;21.70;72.70;;;;;;4995442;28;20049;-73
2021/06/14 08:10:35;;;;;;;4.93;3.17;;;21.70;72.70;;;;;;4995332;28;20018;-74
2021/06/14 08:13:02;;;;;;;7.55;3.67;;;21.70;72.60;;;;;;4995282;28;20049;-74
2021/06/14 08:15:30;;;;;;;6.68;3.40;;;21.70;72.50;;;;;;4995459;28;20044;-74
2021/06/14 08:18:19;;;;;;;7.07;3.53;;;21.70;72.40;;;;;;4994420;28;20482;-74
2021/06/14 08:25:55;;;;;;;6.50;3.28;;;21.80;72.50;;;;;;4995126;28;20037;-73
2021/06/14 08:28:21;;;;;;;8.23;3.78;;;21.80;72.40;;;;;;4995095;28;20101;-73
2021/06/14 08:30:46;;;;;;;6.70;3.08;;;21.80;72.40;;;;;;4994870;28;20022;-73
2021/06/14 08:33:12;;;;;;;6.03;3.45;;;21.80;72.30;;;;;;4995011;28;20037;-72
2021/06/14 08:35:38;;;;;;;5.65;3.22;;;21.80;72.30;;;;;;5009864;28;20153;-73
2021/06/14 08:38:04;;;;;;;6.32;3.60;;;21.80;72.30;;;;;;4994780;28;20026;-72
2021/06/14 08:40:34;;;;;;;7.50;3.17;;;21.80;72.30;;;;;;5026507;28;20084;-72
2021/06/14 08:43:03;;;;;;;9.90;3.25;;;21.80;72.30;;;;;;4994741;28;20089;-73
2021/06/14 08:45:34;;;;;;;6.57;3.63;;;21.80;72.20;;;;;;4994625;28;20045;-73
2021/06/14 08:48:00;;;;;;;7.05;3.58;;;21.80;72.20;;;;;;4994312;28;20173;-73
2021/06/14 08:50:26;;;;;;;9.10;3.40;;;21.80;72.20;;;;;;4993394;28;20054;-72
2021/06/14 08:52:52;;;;;;;5.05;3.03;;;21.80;72.20;;;;;;4993617;28;20053;-72
2021/06/14 08:55:18;;;;;;;9.38;3.00;;;21.80;72.20;;;;;;4993727;28;20026;-71
2021/06/14 08:57:46;;;;;;;8.55;3.40;;;21.80;72.10;;;;;;4994190;28;20026;-72
2021/06/14 09:00:17;;;;;;;4.43;3.00;;;21.90;72.30;;;;;;4994348;28;20034;-72
2021/06/14 09:02:44;;;;;;;4.78;2.72;;;21.90;72.40;;;;;;4994395;28;20022;-71
2021/06/14 09:05:10;;;;;;;3.60;2.65;;;21.90;72.40;;;;;;4994158;28;20026;-70
2021/06/14 09:07:36;;;;;;;5.60;3.10;;;21.90;72.50;;;;;;4994388;28;20105;-70
2021/06/14 09:10:04;;;;;;;4.40;2.60;;;21.90;72.60;;;;;;4994242;28;20113;-72
2021/06/14 09:12:42;;;;;;;8.80;3.10;;;21.90;72.70;;;;;;4994208;28;20033;-71
2021/06/14 09:15:10;;;;;;;6.80;2.80;;;21.90;72.70;;;;;;4993182;28;20034;-72
2021/06/14 09:17:36;;;;;;;4.75;2.65;;;21.90;72.80;;;;;;4994067;28;20018;-70
2021/06/14 09:20:11;;;;;;;4.70;3.00;;;21.90;72.80;;;;;;4993805;28;20034;-72
2021/06/14 09:22:37;;;;;;;;;;;21.90;72.80;;;;;;4994319;28;20026;-72
2021/06/14 09:25:08;;;;;;;4.70;2.40;;;21.90;72.80;;;;;;4993452;28;19909;-72
2021/06/14 09:27:41;;;;;;;7.82;3.42;;;21.90;72.80;;;;;;4993384;28;20088;-71
2021/06/14 09:30:23;;;;;;;5.45;2.85;;;21.90;72.80;;;;;;4993942;28;20031;-70
2021/06/14 09:32:59;;;;;;;4.53;2.85;;;21.90;72.70;;;;;;4993500;28;20026;-70
2021/06/14 09:35:29;;;;;;;4.50;3.13;;;22.00;72.70;;;;;;4994022;28;20030;-70
2021/06/14 09:38:05;;;;;;;5.43;2.80;;;22.00;72.70;;;;;;4993580;28;20084;-70
2021/06/14 09:40:57;;;;;;;4.80;2.75;;;21.90;73.60;;;;;;4993663;28;20449;-72
2021/06/14 09:43:31;;;;;;;5.78;2.65;;;22.00;72.90;;;;;;4974229;28;20069;-72
2021/06/14 09:46:00;;;;;;;4.68;2.90;;;22.00;72.90;;;;;;4983372;28;20030;-72
2021/06/14 09:48:28;;;;;;;4.47;2.63;;;22.00;72.90;;;;;;4992851;28;20034;-71
2021/06/14 09:50:56;;;;;;;4.05;2.67;;;22.00;72.90;;;;;;4993005;28;20045;-73
2021/06/14 09:53:35;;;;;;;5.93;3.13;;;22.00;72.90;;;;;;4993349;28;20105;-70
2021/06/14 09:56:19;;;;;;;4.78;2.60;;;22.00;72.90;;;;;;4993777;28;20084;-70
2021/06/14 09:58:47;;;;;;;5.03;3.00;;;22.00;72.90;;;;;;4993215;28;20446;-71
2021/06/14 10:01:13;;;;;;;3.92;2.95;;;22.00;72.90;;;;;;4993095;28;20121;-71
2021/06/14 10:03:47;;;;;;;5.95;3.22;;;22.00;72.90;;;;;;4992442;28;20114;-71
2021/06/14 10:06:14;;;;;;;6.75;2.85;;;22.00;72.90;;;;;;4993345;28;20026;-72
2021/06/14 10:08:46;;;;;;;4.20;2.58;;;22.00;72.90;;;;;;4992551;28;20520;-72
2021/06/14 10:11:16;;;;;;;5.97;2.95;;;22.10;73.00;;;;;;4993247;28;20026;-72
2021/06/14 10:13:44;;;;;;;7.03;2.90;;;22.10;73.00;;;;;;4992851;28;20034;-72
2021/06/14 10:16:12;;;;;;;4.50;2.55;;;22.10;73.00;;;;;;4992587;28;20027;-71
2021/06/14 10:18:51;;;;;;;5.57;2.30;;;22.10;73.00;;;;;;4992161;28;20050;-72
2021/06/14 10:21:29;;;;;;;4.93;2.40;;;22.10;73.00;;;;;;4993060;28;20086;-71
2021/06/14 10:23:58;;;;;;;4.80;2.83;;;22.10;73.00;;;;;;4992706;28;20075;-71
2021/06/14 10:26:25;;;;;;;4.13;3.05;;;22.10;73.00;;;;;;4992715;28;20106;-71
2021/06/14 10:28:52;;;;;;;6.20;3.08;;;22.10;73.00;;;;;;4992455;28;20017;-70
2021/06/14 10:31:19;;;;;;;5.28;3.15;;;22.10;73.00;;;;;;4992867;28;20030;-70
2021/06/14 10:33:57;;;;;;;3.30;2.30;;;22.10;73.70;;;;;;4991962;28;20506;-71
2021/06/14 10:36:26;;;;;;;6.28;3.03;;;22.10;73.00;;;;;;4992738;28;20402;-71
2021/06/14 10:38:54;;;;;;;4.80;2.15;;;22.10;72.90;;;;;;4992190;28;20053;-71
2021/06/14 10:41:21;;;;;;;4.63;2.78;;;22.10;72.80;;;;;;4992148;28;20030;-71
2021/06/14 10:43:47;;;;;;;4.18;2.63;;;22.20;72.80;;;;;;4992209;28;20413;-70
2021/06/14 10:46:15;;;;;;;4.20;2.50;;;22.20;72.90;;;;;;4992074;28;20088;-71
2021/06/14 10:48:41;;;;;;;5.25;3.00;;;22.20;73.00;;;;;;4992275;28;20030;-71
2021/06/14 10:51:16;;;;;;;4.45;2.33;;;22.20;73.10;;;;;;4991260;28;20394;-71
2021/06/14 10:53:42;;;;;;;6.07;2.50;;;22.20;73.00;;;;;;4992080;28;20096;-71
2021/06/14 10:56:14;;;;;;;3.92;2.72;;;22.20;73.00;;;;;;4992082;28;20085;-72
2021/06/14 10:58:43;;;;;;;7.22;2.95;;;22.20;73.10;;;;;;4991881;28;20030;-70
2021/06/14 11:01:12;;;;;;;6.68;3.08;;;22.20;73.10;;;;;;4991366;28;20513;-70
2021/06/14 11:03:46;;;;;;;5.20;2.70;;;22.20;73.10;;;;;;4991617;28;20026;-70
2021/06/14 11:06:22;;;;;;;6.28;2.40;;;22.30;73.00;;;;;;4991910;28;20026;-71
2021/06/14 11:09:12;;;;;;;4.63;2.45;;;22.30;73.10;;;;;;4991740;28;20061;-70
2021/06/14 11:11:49;;;;;;;5.18;2.50;;;22.30;72.60;;;;;;4991262;28;20502;-72
2021/06/14 11:14:36;;;;;;;5.90;2.72;;;22.40;72.60;;;;;;4991494;28;20038;-72
2021/06/14 11:17:15;;;;;;;8.82;3.10;;;22.40;72.70;;;;;;4991093;28;20030;-73
2021/06/14 11:19:41;;;;;;;6.68;3.15;;;22.40;72.70;;;;;;4991200;28;20081;-72
2021/06/14 11:22:07;;;;;;;12.50;3.33;;;22.40;73.10;;;;;;4991387;28;20081;-72
2021/06/14 11:24:38;;;;;;;8.00;3.17;;;22.40;74.50;;;;;;4991851;28;20022;-73
2021/06/14 11:27:07;;;;;;;5.15;2.75;;;22.40;74.90;;;;;;4990859;28;20022;-73
2021/06/14 11:29:49;;;;;;;5.45;3.70;;;22.40;75.50;;;;;;4991647;28;20049;-73
2021/06/14 11:32:20;;;;;;;8.55;2.95;;;22.50;75.20;;;;;;4991748;28;20110;-73
2021/06/14 11:34:57;;;;;;;10.18;5.10;;;22.50;75.90;;;;;;4991538;28;20401;-72
2021/06/14 11:37:39;;;;;;;10.38;4.80;;;22.50;75.90;;;;;;4990906;28;20100;-73
2021/06/14 11:40:08;;;;;;;7.82;4.75;;;22.50;75.10;;;;;;4990765;28;20033;-73
2021/06/14 11:42:47;;;;;;;8.25;4.70;;;22.50;75.30;;;;;;4990914;28;20030;-72
2021/06/14 11:45:29;;;;;;;7.95;4.78;;;22.50;76.00;;;;;;4989882;28;20034;-71
2021/06/14 11:47:56;;;;;;;9.07;4.82;;;22.60;75.50;;;;;;4987806;28;20030;-70
2021/06/14 11:50:33;;;;;;;8.15;4.80;;;22.60;75.80;;;;;;4990434;28;20177;-70
2021/06/14 11:53:07;;;;;;;8.38;4.65;;;22.60;75.60;;;;;;4989119;28;20042;-71
2021/06/14 11:55:35;;;;;;;10.25;5.15;;;22.50;75.40;;;;;;4991463;28;20030;-72
2021/06/14 11:58:06;;;;;;;8.13;4.72;;;22.50;75.20;;;;;;4991956;28;20121;-72
2021/06/14 12:00:44;;;;;;;8.85;4.03;;;22.50;75.10;;;;;;4991298;28;20061;-72
2021/06/14 12:03:26;;;;;;;7.53;4.53;;;22.50;75.00;;;;;;5005716;28;20516;-72
2021/06/14 12:05:55;;;;;;;7.72;4.47;;;22.50;75.00;;;;;;4991412;28;20058;-72
2021/06/14 12:08:23;;;;;;;10.52;4.90;;;22.50;74.90;;;;;;4991377;28;20019;-72
2021/06/14 12:10:52;;;;;;;7.57;4.38;;;22.60;74.80;;;;;;4990758;28;20487;-73
2021/06/14 12:13:19;;;;;;;7.38;3.70;;;22.60;74.80;;;;;;5005734;28;20050;-72
2021/06/14 12:15:50;;;;;;;7.45;4.53;;;22.60;74.60;;;;;;4991019;28;20029;-73
2021/06/14 12:18:17;;;;;;;7.38;4.72;;;22.60;74.60;;;;;;4991448;28;20026;-73
2021/06/14 12:20:46;;;;;;;8.23;4.43;;;22.60;74.50;;;;;;4991354;28;20130;-73
2021/06/14 12:23:15;;;;;;;6.70;4.07;;;22.60;74.40;;;;;;4991146;28;20030;-73
2021/06/14 12:25:49;;;;;;;7.80;4.22;;;22.60;74.40;;;;;;4991143;28;20034;-71
2021/06/14 12:28:17;;;;;;;6.22;3.80;;;22.60;74.30;;;;;;4991465;28;20100;-72
2021/06/14 12:30:46;;;;;;;8.02;4.10;;;22.60;74.30;;;;;;4991301;28;20027;-71
2021/06/14 12:33:24;;;;;;;6.47;4.30;;;22.60;74.10;;;;;;4991198;28;20035;-71
2021/06/14 12:35:55;;;;;;;7.28;4.43;;;22.60;74.10;;;;;;4990944;28;20117;-72
2021/06/14 12:38:21;;;;;;;5.55;3.80;;;22.60;74.10;;;;;;4991379;28;20027;-70
2021/06/14 12:40:47;;;;;;;7.45;4.00;;;22.60;74.10;;;;;;4989870;28;20058;-71
2021/06/14 12:43:13;;;;;;;6.65;3.40;;;22.60;74.00;;;;;;4990756;28;20024;-70
2021/06/14 12:45:41;;;;;;;6.88;3.67;;;22.60;73.90;;;;;;4990968;28;20110;-71
2021/06/14 12:48:10;;;;;;;5.45;3.72;;;22.60;73.90;;;;;;4991285;28;20026;-71
2021/06/14 12:50:38;;;;;;;5.45;3.63;;;22.60;73.90;;;;;;4994252;28;20523;-71
2021/06/14 12:53:05;;;;;;;7.35;3.60;;;22.70;74.00;;;;;;4993458;28;20118;-72
2021/06/14 12:55:33;;;;;;;6.38;3.60;;;22.70;73.90;;;;;;4993933;28;20034;-71
2021/06/14 12:58:08;;;;;;;7.47;3.88;;;22.70;73.90;;;;;;4994881;28;20462;-71
2021/06/14 13:00:36;;;;;;;5.45;3.80;;;22.70;73.80;;;;;;4994079;28;20034;-70
2021/06/14 13:03:04;;;;;;;6.20;4.03;;;22.70;73.80;;;;;;4993964;28;20028;-71
2021/06/14 13:05:33;;;;;;;5.70;3.88;;;22.70;73.80;;;;;;4994477;28;20065;-71
2021/06/14 13:08:15;;;;;;;6.80;3.60;;;22.70;73.60;;;;;;4994573;28;20032;-71
2021/06/14 13:10:44;;;;;;;6.10;3.40;;;22.70;73.60;;;;;;4993581;28;20052;-70
2021/06/14 13:13:27;;;;;;;6.30;3.78;;;22.70;73.10;;;;;;4994170;28;20030;-71
2021/06/14 13:16:17;;;;;;;6.43;3.28;;;22.70;73.10;;;;;;4994050;28;20019;-70
2021/06/14 13:18:56;;;;;;;5.97;3.80;;;22.70;73.30;;;;;;4993262;28;20113;-71
2021/06/14 13:21:27;;;;;;;8.30;3.60;;;22.70;73.30;;;;;;4994061;28;20038;-71
2021/06/14 13:24:03;;;;;;;5.20;3.10;;;22.70;73.20;;;;;;4993785;28;20030;-72
2021/06/14 13:26:46;;;;;;;6.57;3.22;;;22.80;73.30;;;;;;4994110;28;20068;-72
2021/06/14 13:29:28;;;;;;;5.35;3.38;;;22.80;73.30;;;;;;4994016;28;20019;-72
2021/06/14 13:34:53;;;;;;;3.70;2.88;;;22.80;73.10;;;;;;4974119;28;20035;-70
2021/06/14 13:37:19;;;;;;;3.60;2.80;;;22.80;73.10;;;;;;4974400;28;20042;-72
2021/06/14 13:39:45;;;;;;;4.60;2.88;;;22.80;73.10;;;;;;4987173;28;20030;-72
2021/06/14 13:42:13;;;;;;;4.30;2.97;;;22.80;73.00;;;;;;5008115;28;20022;-71
2021/06/14 13:44:52;;;;;;;4.63;3.10;;;22.80;73.10;;;;;;4993550;28;20033;-71
2021/06/14 13:47:23;;;;;;;5.03;3.30;;;22.80;73.10;;;;;;4993693;28;20117;-71
2021/06/14 13:49:51;;;;;;;6.65;3.25;;;22.80;73.20;;;;;;4992272;28;20033;-71
2021/06/14 13:52:18;;;;;;;5.35;3.22;;;22.80;73.20;;;;;;4993272;28;20030;-72
2021/06/14 13:54:56;;;;;;;4.80;2.97;;;22.80;73.20;;;;;;4992594;28;20034;-71
2021/06/14 13:57:21;;;;;;;4.20;2.95;;;22.80;73.20;;;;;;4993530;28;20030;-72
2021/06/14 13:59:47;;;;;;;5.13;3.00;;;22.80;73.10;;;;;;4992584;28;20026;-71
2021/06/14 14:02:21;;;;;;;4.65;3.00;;;22.80;73.20;;;;;;4993355;28;20026;-73
2021/06/14 14:04:48;;;;;;;6.05;3.53;;;22.80;73.20;;;;;;5005135;28;20057;-72
2021/06/14 14:07:14;;;;;;;5.68;2.80;;;22.80;73.20;;;;;;4992871;28;20038;-70
2021/06/14 14:09:41;;;;;;;4.55;2.85;;;22.80;73.20;;;;;;4992996;28;20022;-71
2021/06/14 14:12:07;;;;;;;3.33;2.75;;;22.80;73.20;;;;;;4993111;28;20030;-71
2021/06/14 14:14:33;;;;;;;6.07;3.05;;;22.80;73.20;;;;;;4992259;28;20030;-72
2021/06/14 14:17:00;;;;;;;4.95;2.90;;;22.90;73.20;;;;;;4993467;28;20034;-70
2021/06/14 14:19:28;;;;;;;4.10;2.92;;;22.80;73.10;;;;;;4992622;28;20041;-71
2021/06/14 14:21:54;;;;;;;4.45;2.67;;;22.90;73.20;;;;;;4999246;28;20026;-72
2021/06/14 14:24:20;;;;;;;4.60;2.88;;;22.80;73.10;;;;;;5012403;28;20030;-71
2021/06/14 14:26:53;;;;;;;3.47;2.55;;;22.90;73.00;;;;;;5012226;28;20025;-71
2021/06/14 14:29:29;;;;;;;6.00;2.80;;;22.90;73.00;;;;;;5011864;28;20077;-71
2021/06/14 14:32:01;;;;;;;4.22;2.53;;;22.90;73.00;;;;;;4992214;28;20030;-72
2021/06/14 14:34:47;;;;;;;3.72;2.67;;;22.90;72.90;;;;;;4992943;28;20061;-72
2021/06/14 14:37:24;;;;;;;;;;;22.90;72.90;;;;;;4993263;28;20037;-72
2021/06/14 14:40:13;;;;;;;3.15;2.58;;;22.90;72.90;;;;;;4992343;28;20422;-73
2021/06/14 14:42:40;;;;;;;4.43;2.30;;;22.90;72.90;;;;;;4992359;28;20030;-72
2021/06/14 14:45:13;;;;;;;3.88;2.60;;;23.00;73.00;;;;;;4992548;28;20025;-71
2021/06/14 14:47:39;;;;;;;4.22;2.35;;;22.90;72.90;;;;;;4992185;28;20509;-70
2021/06/14 14:50:06;;;;;;;5.63;3.03;;;22.90;73.10;;;;;;4991198;28;20064;-72
2021/06/14 14:52:34;;;;;;;4.35;2.80;;;22.90;72.90;;;;;;5007323;28;20026;-73
2021/06/14 14:55:01;;;;;;;3.88;2.45;;;23.00;72.90;;;;;;4992316;28;20034;-72
2021/06/14 14:57:26;;;;;;;3.90;2.63;;;23.00;72.90;;;;;;4992279;28;20027;-71
2021/06/14 14:59:52;;;;;;;5.60;3.03;;;23.00;72.90;;;;;;4992080;28;20099;-71
2021/06/14 15:02:18;;;;;;;4.20;2.53;;;23.00;72.90;;;;;;5007358;28;20112;-71
2021/06/14 15:04:43;;;;;;;4.07;2.75;;;23.00;73.10;;;;;;4991395;28;20038;-72
2021/06/14 15:07:09;;;;;;;5.80;2.95;;;23.00;73.00;;;;;;4992136;28;20105;-71
2021/06/14 15:09:36;;;;;;;3.80;2.10;;;23.00;73.10;;;;;;4991933;28;20489;-71
2021/06/14 15:12:03;;;;;;;5.18;2.90;;;23.00;73.10;;;;;;4990141;28;20022;-73
2021/06/14 15:14:29;;;;;;;5.10;2.60;;;23.00;73.10;;;;;;4992144;28;20038;-71
2021/06/14 15:16:55;;;;;;;3.42;2.40;;;23.00;73.10;;;;;;4991683;28;20106;-72
2021/06/14 15:19:20;;;;;;;4.43;2.53;;;23.00;73.10;;;;;;4991300;28;20022;-72
2021/06/14 15:21:48;;;;;;;4.32;2.80;;;23.00;73.10;;;;;;4991184;28;20133;-71
2021/06/14 15:24:13;;;;;;;3.05;2.35;;;23.00;73.10;;;;;;4990468;28;20026;-71
2021/06/14 15:26:39;;;;;;;4.28;2.35;;;23.00;73.10;;;;;;4991469;28;20030;-71
2021/06/14 15:29:05;;;;;;;3.83;2.40;;;23.00;73.10;;;;;;4991709;28;20076;-72
2021/06/14 15:31:30;;;;;;;3.65;2.15;;;23.00;73.10;;;;;;4991913;28;20019;-72
2021/06/14 15:33:57;;;;;;;3.65;2.40;;;23.00;73.10;;;;;;4991431;28;20065;-72
2021/06/14 15:36:24;;;;;;;3.80;2.35;;;23.00;73.10;;;;;;4991364;28;20026;-71
2021/06/14 15:38:51;;;;;;;3.40;2.05;;;23.10;73.30;;;;;;4991373;28;20030;-71
2021/06/14 15:41:22;;;;;;;3.53;2.55;;;23.00;73.30;;;;;;4991632;28;20015;-70
2021/06/14 15:43:49;;;;;;;3.83;2.42;;;23.10;73.40;;;;;;5006689;28;20451;-70
2021/06/14 15:46:15;;;;;;;4.03;2.58;;;23.10;73.40;;;;;;4991675;28;20550;-70
2021/06/14 15:48:41;;;;;;;3.95;2.47;;;23.10;73.50;;;;;;4990826;28;20030;-71
2021/06/14 15:51:06;;;;;;;4.28;2.38;;;23.10;73.50;;;;;;4990968;28;20076;-71
2021/06/14 15:53:32;;;;;;;4.45;2.67;;;23.10;73.60;;;;;;4989755;28;20062;-72
2021/06/14 15:55:59;;;;;;;4.07;2.20;;;23.10;73.60;;;;;;4992627;28;20023;-70
2021/06/14 15:58:25;;;;;;;3.00;2.20;;;23.10;73.60;;;;;;4990511;28;20027;-71
2021/06/14 16:00:52;;;;;;;3.72;2.10;;;23.10;73.60;;;;;;4990029;28;20062;-69
2021/06/14 16:03:18;;;;;;;4.50;2.53;;;23.10;73.60;;;;;;4991608;28;20045;-70
2021/06/14 16:05:45;;;;;;;3.53;2.28;;;23.10;73.60;;;;;;4991020;28;20429;-69
2021/06/14 16:08:10;;;;;;;4.07;2.22;;;23.10;73.60;;;;;;4991560;28;20035;-70
2021/06/14 16:10:36;;;;;;;3.75;2.40;;;23.10;73.60;;;;;;4991327;28;20045;-72
2021/06/14 16:13:02;;;;;;;3.78;2.33;;;23.10;73.60;;;;;;4990225;28;20088;-72
2021/06/14 16:15:29;;;;;;;4.05;2.50;;;23.10;73.60;;;;;;4990391;28;20101;-72
2021/06/14 16:17:54;;;;;;;4.65;2.58;;;23.10;73.60;;;;;;4987038;28;20109;-72
2021/06/14 16:20:20;;;;;;;2.83;2.10;;;23.10;73.60;;;;;;4990673;28;20493;-72
2021/06/14 16:22:47;;;;;;;5.03;2.35;;;23.10;73.60;;;;;;4992068;28;20439;-72
2021/06/14 16:25:15;;;;;;;4.00;2.22;;;23.20;73.70;;;;;;4995091;28;20505;-72
2021/06/14 16:27:41;;;;;;;4.07;2.45;;;23.10;73.60;;;;;;4994534;28;20026;-72
2021/06/14 16:30:09;;;;;;;5.57;2.25;;;23.20;73.70;;;;;;4995017;28;20037;-72
2021/06/14 16:32:35;;;;;;;3.28;2.30;;;23.20;73.70;;;;;;4993972;28;20076;-72
2021/06/14 16:35:01;;;;;;;3.55;2.35;;;23.20;74.10;;;;;;4994277;28;20046;-74
2021/06/14 16:37:27;;;;;;;2.53;2.00;;;23.20;74.10;;;;;;4993962;28;20015;-73
2021/06/14 16:39:52;;;;;;;4.75;2.63;;;23.20;74.00;;;;;;4993038;28;20041;-79
2021/06/14 16:42:18;;;;;;;5.57;2.40;;;23.20;74.10;;;;;;4993893;28;20409;-79
2021/06/14 16:44:44;;;;;;;4.63;1.63;;;23.20;74.30;;;;;;4992977;28;20061;-77
2021/06/14 16:47:10;;;;;;;7.55;2.30;;;23.20;75.30;;;;;;4991886;28;20100;-77
2021/06/14 16:49:37;;;;;;;3.35;2.00;;;23.20;74.90;;;;;;4992900;28;20034;-73
2021/06/14 16:52:04;;;;;;;4.20;2.50;;;23.20;75.20;;;;;;4993273;28;20024;-74
2021/06/14 16:54:29;;;;;;;5.00;2.30;;;23.20;75.30;;;;;;4992666;28;20084;-72
2021/06/14 16:56:55;;;;;;;7.05;2.65;;;23.20;75.50;;;;;;4994075;28;20023;-67
2021/06/14 16:59:22;;;;;;;4.25;2.67;;;23.30;76.10;;;;;;4993494;28;20042;-68
2021/06/14 17:01:49;;;;;;;5.60;2.53;;;23.30;76.40;;;;;;4992644;28;20026;-69
2021/06/14 17:04:15;;;;;;;4.55;2.33;;;23.30;76.30;;;;;;4992924;28;20041;-70
2021/06/14 17:06:42;;;;;;;6.18;2.80;;;23.30;76.70;;;;;;4992282;28;20113;-70
2021/06/14 17:09:08;;;;;;;4.18;3.03;;;23.30;77.30;;;;;;4993497;28;20114;-67
2021/06/14 17:11:35;;;;;;;4.78;2.42;;;23.30;77.50;;;;;;4993142;28;20088;-69
2021/06/14 17:14:01;;;;;;;3.38;2.33;;;23.30;77.80;;;;;;4994356;28;20155;-68
2021/06/14 17:16:27;;;;;;;8.07;3.17;;;23.30;77.90;;;;;;4994173;28;20538;-74
2021/06/14 17:18:53;;;;;;;4.97;2.55;;;23.30;78.70;;;;;;4993519;28;20038;-69
2021/06/14 17:21:19;;;;;;;6.07;2.88;;;23.30;78.70;;;;;;4988345;28;20058;-74
2021/06/14 17:23:45;;;;;;;6.55;3.25;;;23.40;78.90;;;;;;4974455;28;20383;-69
2021/06/14 17:26:11;;;;;;;4.05;2.55;;;23.40;79.10;;;;;;4991858;28;20445;-74
2021/06/14 17:28:37;;;;;;;5.00;2.67;;;23.40;79.20;;;;;;4993255;28;20034;-71
2021/06/14 17:31:06;;;;;;;5.60;3.03;;;23.40;79.30;;;;;;4993310;28;20033;-73
2021/06/14 17:33:31;;;;;;;4.50;2.40;;;23.40;79.20;;;;;;4993991;28;20391;-76
2021/06/14 17:35:58;;;;;;;15.48;2.92;;;23.40;79.20;;;;;;4992644;28;20031;-71
2021/06/14 17:38:23;;;;;;;4.63;2.63;;;23.40;79.30;;;;;;4974254;28;20034;-72
2021/06/14 17:40:49;;;;;;;5.68;2.60;;;23.40;79.50;;;;;;4976311;28;20034;-72
2021/06/14 17:43:15;;;;;;;5.55;3.10;;;23.40;79.70;;;;;;4993772;28;20036;-71
2021/06/14 17:45:41;;;;;;;5.47;2.55;;;23.40;79.70;;;;;;4993381;28;20106;-71
2021/06/14 17:48:06;;;;;;;8.88;4.88;;;23.40;80.00;;;;;;4991534;28;20490;-71
2021/06/14 17:50:34;;;;;;;9.20;5.20;;;23.40;79.90;;;;;;4993365;28;20022;-74
2021/06/14 17:53:03;;;;;;;6.95;4.43;;;23.40;79.70;;;;;;4992512;28;20109;-68
2021/06/14 17:55:41;;;;;;;13.13;5.43;;;23.40;78.90;;;;;;4993091;28;20030;-71
2021/06/14 17:58:08;;;;;;;8.10;4.32;;;23.50;77.60;;;;;;4992799;28;20018;-70
2021/06/14 18:00:34;;;;;;;10.75;4.78;;;23.50;76.40;;;;;;4993141;28;20038;-71
2021/06/14 18:03:01;;;;;;;10.05;4.85;;;23.50;76.70;;;;;;4993741;28;20061;-71
2021/06/14 18:05:28;;;;;;;8.45;3.92;;;23.50;76.00;;;;;;4992811;28;20109;-71
2021/06/14 18:07:54;;;;;;;10.05;3.78;;;23.50;75.70;;;;;;4999639;28;20034;-75
2021/06/14 18:10:21;;;;;;;10.52;3.78;;;23.50;75.60;;;;;;4995538;28;20108;-73
2021/06/14 18:12:47;;;;;;;10.02;3.70;;;23.50;75.30;;;;;;4992854;28;20026;-73
2021/06/14 18:15:14;;;;;;;7.60;3.70;;;23.50;75.10;;;;;;4992690;28;20057;-74
2021/06/14 18:17:41;;;;;;;6.43;3.30;;;23.50;75.10;;;;;;4992651;28;20058;-72
2021/06/14 18:20:10;;;;;;;12.25;3.80;;;23.60;74.80;;;;;;4992983;28;20097;-73
2021/06/14 18:22:36;;;;;;;6.70;2.95;;;23.50;74.40;;;;;;4992495;28;20018;-75
2021/06/14 18:25:03;;;;;;;6.90;3.70;;;23.60;74.00;;;;;;4993004;28;20022;-73
2021/06/14 18:27:35;;;;;;;8.00;3.03;;;23.60;73.80;;;;;;4992304;28;20442;-74
2021/06/14 18:30:05;;;;;;;9.68;4.45;;;23.60;73.30;;;;;;4992081;28;20034;-75
2021/06/14 18:32:32;;;;;;;10.27;3.72;;;23.60;73.90;;;;;;4992714;28;20041;-76
2021/06/14 18:34:59;;;;;;;10.23;3.78;;;23.60;73.70;;;;;;5000117;28;20401;-72
2021/06/14 18:37:29;;;;;;;7.38;3.47;;;23.60;73.90;;;;;;4990584;28;20046;-74
2021/06/14 18:39:55;;;;;;;10.30;3.38;;;23.60;73.70;;;;;;4998198;28;20105;-72
2021/06/14 18:42:21;;;;;;;6.85;3.15;;;23.60;73.50;;;;;;4991514;28;20025;-73
2021/06/14 18:44:48;;;;;;;7.35;3.75;;;23.70;73.30;;;;;;4992178;28;20112;-72
2021/06/14 18:47:14;;;;;;;8.63;3.55;;;23.60;73.30;;;;;;4990229;28;20105;-74
2021/06/14 18:49:40;;;;;;;9.65;3.20;;;23.70;73.40;;;;;;4991992;28;20537;-75
2021/06/14 18:52:07;;;;;;;7.38;3.65;;;23.70;73.30;;;;;;4992269;28;20039;-75
2021/06/14 18:54:33;;;;;;;8.98;3.30;;;23.70;73.10;;;;;;4991682;28;20046;-73
2021/06/14 18:56:59;;;;;;;10.52;6.75;;;23.70;73.10;;;;;;4990645;28;20029;-74
2021/06/14 18:59:25;;;;;;;8.15;4.80;;;23.80;73.40;;;;;;4990618;28;20030;-73
2021/06/14 19:01:51;;;;;;;10.85;5.78;;;23.80;73.20;;;;;;4990796;28;20042;-72
2021/06/14 19:04:17;;;;;;;9.98;5.03;;;23.80;73.50;;;;;;4991133;28;20406;-75
2021/06/14 19:06:43;;;;;;;7.63;4.20;;;23.80;73.40;;;;;;4990557;28;20028;-75
2021/06/14 19:09:09;;;;;;;8.50;4.15;;;23.80;73.60;;;;;;4990895;28;20034;-74
2021/06/14 19:11:36;;;;;;;9.65;3.97;;;23.80;73.80;;;;;;5006312;28;20023;-75
2021/06/14 19:14:04;;;;;;;12.23;4.28;;;23.90;74.10;;;;;;4991969;28;20042;-72
2021/06/14 19:16:31;;;;;;;10.43;4.20;;;23.90;74.40;;;;;;5006221;28;20054;-75
2021/06/14 19:18:56;;;;;;;7.82;4.10;;;23.90;74.60;;;;;;4989588;28;20470;-73
2021/06/14 19:21:22;;;;;;;10.70;4.43;;;23.90;74.70;;;;;;5006173;28;20069;-74
2021/06/14 19:23:48;;;;;;;6.13;3.88;;;24.00;74.90;;;;;;4990828;28;20844;-73
2021/06/14 19:26:14;;;;;;;9.07;4.38;;;24.00;74.80;;;;;;4989910;28;20057;-74
2021/06/14 19:28:41;;;;;;;9.02;4.10;;;24.00;74.80;;;;;;4991161;28;20076;-73
2021/06/14 19:31:08;;;;;;;9.82;4.25;;;24.00;74.90;;;;;;4991929;28;20053;-75
2021/06/14 19:33:33;;;;;;;11.30;4.18;;;24.00;74.90;;;;;;4990284;28;20113;-74
2021/06/14 19:35:59;;;;;;;8.30;3.65;;;24.00;75.00;;;;;;4990504;28;20463;-76
2021/06/14 19:38:25;;;;;;;8.75;4.57;;;23.90;75.30;;;;;;4990193;28;20084;-73
2021/06/14 19:40:50;;;;;;;8.15;4.85;;;23.90;75.20;;;;;;4990152;28;20030;-73
2021/06/14 19:43:16;;;;;;;19.15;11.45;;;23.90;74.90;;;;;;4990164;28;20104;-72
2021/06/14 19:45:42;;;;;;;21.63;14.50;;;23.90;75.00;;;;;;4989938;28;20018;-72
2021/06/14 19:48:08;;;;;;;22.70;13.38;;;23.90;74.40;;;;;;4990893;28;20030;-72
2021/06/14 19:50:34;;;;;;;18.42;10.98;;;23.90;74.40;;;;;;4989835;28;20073;-72
2021/06/14 19:53:00;;;;;;;14.90;8.98;;;23.90;74.30;;;;;;4990290;28;20026;-75
2021/06/14 19:55:26;;;;;;;15.50;6.95;;;23.80;73.90;;;;;;5003922;28;20033;-72
2021/06/14 19:57:52;;;;;;;14.40;7.60;;;23.80;73.30;;;;;;4991038;28;20022;-72
2021/06/14 20:00:20;;;;;;;10.20;6.20;;;23.80;73.30;;;;;;4994762;28;20030;-76